createdAt,value
2023-05-22T00:02:39.011Z,75.29
2023-05-22T00:05:41.306Z,75.69
2023-05-22T00:08:43.253Z,76.00
2023-05-22T00:11:45.555Z,75.94
2023-05-22T00:14:47.405Z,75.81
2023-05-22T00:17:49.993Z,75.84
2023-05-22T00:20:51.948Z,76.19
2023-05-22T00:23:53.925Z,76.01
2023-05-22T00:26:55.777Z,75.90
2023-05-22T00:29:58.397Z,75.78
2023-05-22T00:33:00.318Z,75.92
2023-05-22T00:36:02.187Z,75.99
2023-05-22T00:39:04.130Z,76.15
2023-05-22T00:42:06.177Z,76.34
2023-05-22T00:45:11.239Z,76.37
2023-05-22T00:48:13.918Z,76.95
2023-05-22T00:51:16.091Z,76.71
2023-05-22T00:54:18.004Z,76.94
2023-05-22T00:57:22.131Z,77.02
2023-05-22T01:00:24.289Z,77.05
2023-05-22T01:03:26.856Z,77.09
2023-05-22T01:06:32.286Z,77.04
2023-05-22T01:09:34.220Z,76.99
2023-05-22T01:12:47.272Z,77.01
2023-05-22T01:16:01.569Z,77.70
2023-05-22T01:19:18.440Z,77.25
2023-05-22T01:22:46.236Z,77.58
2023-05-22T01:26:05.773Z,77.25
2023-05-22T01:29:26.573Z,77.49
2023-05-22T01:32:29.943Z,77.24
2023-05-22T01:35:33.673Z,77.15
2023-05-22T01:38:36.306Z,77.31
2023-05-22T01:41:40.549Z,77.65
2023-05-22T01:44:42.406Z,77.80
2023-05-22T01:47:44.635Z,77.75
2023-05-22T01:50:51.562Z,77.59
2023-05-22T01:54:07.592Z,77.42
2023-05-22T01:57:37.502Z,77.79
2023-05-22T02:00:43.849Z,77.51
2023-05-22T02:03:51.773Z,78.00
2023-05-22T02:06:54.287Z,78.04
2023-05-22T02:09:57.113Z,77.65
2023-05-22T02:12:58.914Z,77.99
2023-05-22T02:16:01.450Z,77.84
2023-05-22T02:19:06.620Z,77.24
2023-05-22T02:22:13.812Z,77.64
2023-05-22T02:25:17.393Z,77.90
2023-05-22T02:28:20.436Z,77.54
2023-05-22T02:31:22.467Z,77.82
2023-05-22T02:34:24.498Z,77.94
2023-05-22T02:37:26.360Z,78.02
2023-05-22T02:40:28.482Z,77.89
2023-05-22T02:43:30.464Z,77.83
2023-05-22T02:46:32.332Z,78.17
2023-05-22T02:49:35.785Z,79.07
2023-05-22T02:52:39.365Z,78.21
2023-05-22T02:55:44.095Z,77.84
2023-05-22T02:58:45.958Z,77.88
2023-05-22T03:01:49.037Z,77.77
2023-05-22T03:04:50.897Z,77.76
2023-05-22T03:07:52.963Z,77.55
2023-05-22T03:10:56.767Z,77.79
2023-05-22T03:13:58.727Z,77.52
2023-05-22T03:17:00.699Z,77.82
2023-05-22T03:20:04.787Z,77.95
2023-05-22T03:23:06.917Z,77.79
2023-05-22T03:26:09.114Z,77.95
2023-05-22T03:29:13.302Z,77.49
2023-05-22T03:32:16.737Z,77.50
2023-05-22T03:35:20.042Z,77.22
2023-05-22T03:38:22.143Z,77.03
2023-05-22T03:41:24.011Z,76.89
2023-05-22T03:44:26.105Z,76.25
2023-05-22T03:47:29.201Z,76.52
2023-05-22T03:50:31.027Z,76.14
2023-05-22T03:53:32.942Z,75.72
2023-05-22T03:56:35.255Z,75.11
2023-05-22T03:59:37.865Z,74.62
2023-05-22T04:02:40.048Z,74.36
2023-05-22T04:05:42.101Z,74.13
2023-05-22T04:08:45.298Z,73.79
2023-05-22T04:11:48.767Z,73.00
2023-05-22T04:14:51.134Z,72.82
2023-05-22T04:17:53.635Z,72.34
2023-05-22T04:20:56.050Z,71.86
2023-05-22T04:23:57.931Z,71.83
2023-05-22T04:27:00.382Z,71.22
2023-05-22T04:30:03.740Z,71.16
2023-05-22T04:33:06.474Z,70.87
2023-05-22T04:36:12.391Z,71.02
2023-05-22T04:39:15.189Z,70.68
2023-05-22T04:42:17.508Z,70.28
2023-05-22T04:45:19.546Z,70.15
2023-05-22T04:48:21.411Z,69.76
2023-05-22T04:51:23.390Z,69.47
2023-05-22T04:54:25.337Z,68.81
2023-05-22T04:57:27.424Z,67.96
2023-05-22T05:00:29.484Z,67.59
2023-05-22T05:03:32.395Z,67.67
2023-05-22T05:06:34.918Z,67.04
2023-05-22T05:09:37.830Z,66.82
2023-05-22T05:12:39.748Z,66.97
2023-05-22T05:15:41.598Z,65.83
2023-05-22T05:18:43.636Z,65.66
2023-05-22T05:21:47.133Z,65.50
2023-05-22T05:24:48.922Z,65.15
2023-05-22T05:27:50.921Z,65.00
2023-05-22T05:30:53.694Z,65.19
2023-05-22T05:34:18.178Z,64.76
2023-05-22T05:37:31.712Z,64.92
2023-05-22T05:40:35.671Z,64.49
2023-05-22T05:43:39.359Z,64.52
2023-05-22T05:46:43.421Z,64.27
2023-05-22T05:49:46.034Z,64.17
2023-05-22T05:52:50.703Z,64.28
2023-05-22T05:55:54.692Z,64.49
2023-05-22T05:58:56.837Z,64.75
2023-05-22T06:02:21.991Z,64.84
2023-05-22T06:05:29.434Z,64.76
2023-05-22T06:08:42.372Z,65.00
2023-05-22T06:11:44.260Z,64.86
2023-05-22T06:14:46.173Z,64.78
2023-05-22T06:17:49.901Z,64.79
2023-05-22T06:20:53.312Z,64.71
2023-05-22T06:23:55.381Z,64.70
2023-05-22T06:26:58.181Z,64.93
2023-05-22T06:30:00.468Z,64.58
2023-05-22T06:33:06.389Z,64.62
2023-05-22T06:36:08.946Z,64.18
2023-05-22T06:39:11.381Z,63.24
2023-05-22T06:42:32.938Z,63.03
2023-05-22T06:45:53.344Z,62.29
2023-05-22T06:48:57.893Z,61.63
2023-05-22T06:52:03.902Z,62.29
2023-05-22T06:55:07.878Z,62.82
2023-05-22T06:58:22.165Z,63.25
2023-05-22T07:01:25.992Z,63.46
2023-05-22T07:04:43.427Z,63.72
2023-05-22T07:07:49.011Z,64.33
2023-05-22T07:10:51.712Z,64.71
2023-05-22T07:13:53.653Z,63.71
2023-05-22T07:16:56.374Z,63.16
2023-05-22T07:20:03.740Z,61.91
2023-05-22T07:23:08.946Z,59.71
2023-05-22T07:26:12.565Z,57.89
2023-05-22T07:29:24.818Z,57.21
2023-05-22T07:32:29.498Z,55.86
2023-05-22T07:35:35.041Z,54.07
2023-05-22T07:38:37.625Z,53.19
2023-05-22T07:41:40.228Z,50.76
2023-05-22T07:44:44.654Z,50.05
2023-05-22T07:47:46.773Z,47.99
2023-05-22T07:50:48.859Z,48.56
2023-05-22T07:53:50.944Z,48.07
2023-05-22T07:56:53.038Z,48.32
2023-05-22T07:59:57.116Z,48.51
2023-05-22T08:02:59.055Z,48.57
2023-05-22T08:06:01.045Z,47.67
2023-05-22T08:09:04.650Z,48.79
2023-05-22T08:12:08.017Z,47.08
2023-05-22T08:15:11.096Z,47.02
2023-05-22T08:18:13.757Z,47.12
2023-05-22T08:21:15.660Z,45.64
2023-05-22T08:24:17.518Z,44.71
2023-05-22T08:27:19.380Z,45.02
2023-05-22T08:30:21.390Z,45.04
2023-05-22T08:33:23.414Z,44.24
2023-05-22T08:36:25.505Z,43.51
2023-05-22T08:39:27.864Z,42.62
2023-05-22T08:42:29.949Z,43.74
2023-05-22T08:45:35.178Z,42.93
2023-05-22T08:48:38.312Z,41.03
2023-05-22T08:51:44.965Z,39.94
2023-05-22T08:54:53.217Z,37.19
2023-05-22T08:57:56.962Z,37.24
2023-05-22T09:00:59.187Z,37.66
2023-05-22T09:04:02.671Z,38.52
2023-05-22T09:07:05.856Z,38.49
2023-05-22T09:10:08.480Z,39.03
2023-05-22T09:13:11.436Z,38.01
2023-05-22T09:16:14.038Z,37.83
2023-05-22T09:19:16.437Z,37.54
2023-05-22T09:22:18.672Z,37.67
2023-05-22T09:25:21.706Z,36.68
2023-05-22T09:28:24.540Z,36.94
2023-05-22T09:31:27.662Z,37.41
2023-05-22T09:34:30.245Z,37.94
2023-05-22T09:37:36.485Z,36.82
2023-05-22T09:40:40.587Z,37.44
2023-05-22T09:43:50.218Z,35.73
2023-05-22T09:46:52.028Z,35.70
2023-05-22T09:49:57.953Z,34.47
2023-05-22T09:53:05.143Z,33.34
2023-05-22T09:56:13.911Z,35.09
2023-05-22T09:59:21.947Z,34.38
2023-05-22T10:02:27.673Z,36.11
2023-05-22T10:05:34.021Z,35.61
2023-05-22T10:08:50.798Z,35.23
2023-05-22T10:11:55.042Z,36.42
2023-05-22T10:14:57.629Z,35.57
2023-05-22T10:18:00.800Z,34.45
2023-05-22T10:21:03.561Z,35.83
2023-05-22T10:24:06.899Z,35.57
2023-05-22T10:27:08.743Z,36.46
2023-05-22T10:30:24.516Z,36.34
2023-05-22T10:34:10.656Z,36.95
2023-05-22T10:37:38.767Z,36.02
2023-05-22T10:40:42.166Z,36.79
2023-05-22T10:43:48.612Z,36.95
2023-05-22T10:46:50.806Z,36.68
2023-05-22T10:50:11.681Z,36.59
2023-05-22T10:53:31.418Z,36.44
2023-05-22T10:56:35.513Z,37.50
2023-05-22T10:59:37.433Z,37.55
2023-05-22T11:02:44.077Z,36.62
2023-05-22T11:05:54.175Z,36.88
2023-05-22T11:08:57.602Z,37.14
2023-05-22T11:12:24.818Z,36.16
2023-05-22T11:15:32.876Z,36.61
2023-05-22T11:18:34.967Z,36.76
2023-05-22T11:21:44.229Z,36.50
2023-05-22T11:24:46.650Z,35.80
2023-05-22T11:27:49.089Z,35.88
2023-05-22T11:30:52.487Z,35.37
2023-05-22T11:33:54.411Z,35.50
2023-05-22T11:37:00.049Z,35.56
2023-05-22T11:40:04.997Z,35.62
2023-05-22T11:43:07.217Z,35.14
2023-05-22T11:46:11.325Z,34.59
2023-05-22T11:49:13.362Z,34.33
2023-05-22T11:52:16.783Z,34.51
2023-05-22T11:55:18.650Z,34.57
2023-05-22T11:58:27.755Z,34.73
2023-05-22T12:01:29.598Z,32.88
2023-05-22T12:04:37.520Z,32.42
2023-05-22T12:07:39.438Z,32.19
2023-05-22T12:10:47.590Z,32.16
2023-05-22T12:13:52.165Z,31.79
2023-05-22T12:16:54.935Z,31.12
2023-05-22T12:19:57.910Z,31.58
2023-05-22T12:22:59.944Z,32.02
2023-05-22T12:26:09.228Z,31.62
2023-05-22T12:29:11.193Z,31.51
2023-05-22T12:32:13.105Z,30.35
2023-05-22T12:35:16.719Z,31.62
2023-05-22T12:38:22.519Z,32.27
2023-05-22T12:41:24.480Z,31.91
2023-05-22T12:44:26.405Z,32.82
2023-05-22T12:47:28.339Z,32.43
2023-05-22T12:50:30.919Z,32.62
2023-05-22T12:53:32.848Z,31.44
2023-05-22T12:56:34.720Z,30.74
2023-05-22T12:59:37.292Z,31.64
2023-05-22T13:02:39.243Z,31.50
2023-05-22T13:05:41.837Z,29.90
2023-05-22T13:08:44.117Z,30.69
2023-05-22T13:11:45.930Z,30.24
2023-05-22T13:14:47.810Z,30.42
2023-05-22T13:17:49.845Z,30.55
2023-05-22T13:20:52.040Z,31.23
2023-05-22T13:23:53.995Z,31.19
2023-05-22T13:26:55.874Z,29.68
2023-05-22T13:29:57.774Z,29.35
2023-05-22T13:32:59.552Z,28.72
2023-05-22T13:36:01.596Z,29.14
2023-05-22T13:39:03.394Z,28.10
2023-05-22T13:42:05.724Z,29.39
2023-05-22T13:45:08.333Z,29.57
2023-05-22T13:48:10.562Z,29.73
2023-05-22T13:51:12.499Z,29.90
2023-05-22T13:54:14.209Z,28.58
2023-05-22T13:57:16.248Z,29.74
2023-05-22T14:00:18.646Z,29.55
2023-05-22T14:03:21.086Z,29.58
2023-05-22T14:06:23.436Z,30.63
2023-05-22T14:09:25.456Z,35.34
2023-05-22T14:12:27.553Z,37.61
2023-05-22T14:15:29.409Z,38.13
2023-05-22T14:18:31.599Z,38.94
2023-05-22T14:21:33.637Z,39.64
2023-05-22T14:24:35.560Z,40.74
2023-05-22T14:27:37.453Z,40.51
2023-05-22T14:30:39.919Z,40.49
2023-05-22T14:33:41.942Z,40.65
2023-05-22T14:36:44.153Z,41.05
2023-05-22T14:39:45.994Z,39.92
2023-05-22T14:42:48.420Z,38.18
2023-05-22T14:45:50.465Z,39.18
2023-05-22T14:48:52.367Z,40.38
2023-05-22T14:51:54.718Z,41.80
2023-05-22T14:54:57.041Z,42.47
2023-05-22T14:57:58.907Z,43.05
2023-05-22T15:01:00.822Z,43.70
2023-05-22T15:04:02.832Z,43.87
2023-05-22T15:07:04.979Z,43.61
2023-05-22T15:10:08.037Z,43.87
2023-05-22T15:13:11.007Z,43.66
2023-05-22T15:16:12.927Z,44.35
2023-05-22T15:19:15.025Z,44.26
2023-05-22T15:22:19.888Z,44.04
2023-05-22T15:25:22.132Z,43.84
2023-05-22T15:28:24.084Z,42.88
2023-05-22T15:31:25.974Z,42.54
2023-05-22T15:34:27.791Z,42.78
2023-05-22T15:37:34.198Z,43.22
2023-05-22T15:40:36.280Z,42.79
2023-05-22T15:43:38.170Z,42.69
2023-05-22T15:46:40.014Z,42.58
2023-05-22T15:49:41.925Z,42.54
2023-05-22T15:55:45.590Z,42.33
2023-05-22T15:58:47.388Z,42.37
2023-05-22T16:01:49.372Z,42.21
2023-05-22T16:04:51.987Z,41.65
2023-05-22T16:07:53.825Z,41.80
2023-05-22T16:10:58.845Z,42.15
2023-05-22T16:14:01.151Z,42.90
2023-05-22T16:17:03.983Z,43.02
2023-05-22T16:20:07.111Z,43.25
2023-05-22T16:23:08.994Z,43.75
2023-05-22T16:26:10.888Z,43.75
2023-05-22T16:29:12.771Z,44.26
2023-05-22T16:32:14.510Z,44.68
2023-05-22T16:35:16.678Z,44.88
2023-05-22T16:38:18.550Z,45.31
2023-05-22T16:41:20.625Z,45.02
2023-05-22T16:44:22.412Z,44.68
2023-05-22T16:47:24.254Z,44.50
2023-05-22T16:50:26.143Z,44.37
2023-05-22T16:53:28.084Z,44.79
2023-05-22T16:56:32.800Z,44.67
2023-05-22T16:59:34.695Z,44.63
2023-05-22T17:02:37.811Z,44.41
2023-05-22T17:05:40.258Z,44.62
2023-05-22T17:08:42.283Z,44.95
2023-05-22T17:11:44.159Z,45.27
2023-05-22T17:14:46.022Z,45.13
2023-05-22T17:17:47.990Z,46.06
2023-05-22T17:20:51.250Z,46.49
2023-05-22T17:23:53.060Z,46.43
2023-05-22T17:26:54.972Z,46.62
2023-05-22T17:29:56.781Z,46.43
2023-05-22T17:32:58.715Z,46.57
2023-05-22T17:36:00.959Z,46.88
2023-05-22T17:39:02.794Z,47.18
2023-05-22T17:42:05.357Z,49.82
2023-05-22T17:45:07.934Z,49.91
2023-05-22T17:48:13.860Z,51.15
2023-05-22T17:51:16.631Z,52.59
2023-05-22T17:54:18.472Z,53.76
2023-05-22T17:57:20.625Z,54.83
2023-05-22T18:00:23.734Z,55.75
2023-05-22T18:03:26.412Z,59.43
2023-05-22T18:06:29.332Z,58.09
2023-05-22T18:09:31.758Z,59.39
2023-05-22T18:12:36.704Z,60.71
2023-05-22T18:15:41.230Z,61.75
2023-05-22T18:18:43.119Z,63.07
2023-05-22T18:21:45.134Z,63.71
2023-05-22T18:24:46.918Z,63.86
2023-05-22T18:27:48.820Z,64.47
2023-05-22T18:30:52.465Z,64.67
2023-05-22T18:33:54.388Z,65.30
2023-05-22T18:36:57.444Z,65.53
2023-05-22T18:39:59.401Z,65.98
2023-05-22T18:43:01.381Z,66.70
2023-05-22T18:46:03.352Z,67.12
2023-05-22T18:49:05.129Z,67.54
2023-05-22T18:52:07.073Z,67.61
2023-05-22T18:55:09.452Z,67.91
2023-05-22T18:58:11.813Z,67.68
2023-05-22T19:01:13.652Z,68.30
2023-05-22T19:04:15.682Z,68.21
2023-05-22T19:07:17.716Z,67.77
2023-05-22T19:10:19.542Z,68.21
2023-05-22T19:13:21.377Z,68.44
2023-05-22T19:16:23.313Z,68.68
2023-05-22T19:19:25.217Z,68.28
2023-05-22T19:22:27.118Z,68.08
2023-05-22T19:25:29.019Z,67.45
2023-05-22T19:28:32.411Z,66.84
2023-05-22T19:31:34.840Z,66.37
2023-05-22T19:34:36.575Z,65.67
2023-05-22T19:37:39.483Z,65.30
2023-05-22T19:40:41.655Z,64.98
2023-05-22T19:43:45.697Z,64.79
2023-05-22T19:46:48.849Z,64.41
2023-05-22T19:49:51.162Z,64.03
2023-05-22T19:52:53.064Z,63.71
2023-05-22T19:55:54.879Z,63.42
2023-05-22T19:58:58.500Z,63.15
2023-05-22T20:02:00.442Z,62.97
2023-05-22T20:05:04.433Z,63.06
2023-05-22T20:08:07.586Z,63.26
2023-05-22T20:11:09.430Z,63.40
2023-05-22T20:14:13.051Z,63.39
2023-05-22T20:17:15.014Z,63.74
2023-05-22T20:20:17.142Z,64.53
2023-05-22T20:23:19.429Z,64.72
2023-05-22T20:26:21.602Z,64.77
2023-05-22T20:29:24.073Z,65.57
2023-05-22T20:32:27.088Z,65.52
2023-05-22T20:35:30.932Z,65.46
2023-05-22T20:38:35.166Z,65.57
2023-05-22T20:41:37.164Z,65.94
2023-05-22T20:44:41.445Z,66.53
2023-05-22T20:47:44.355Z,66.66
2023-05-22T20:50:48.275Z,66.50
2023-05-22T20:53:53.301Z,66.98
2023-05-22T20:56:56.763Z,67.29
2023-05-22T20:59:59.830Z,67.46
2023-05-22T21:03:02.793Z,67.59
2023-05-22T21:06:06.334Z,67.75
2023-05-22T21:09:09.505Z,67.95
2023-05-22T21:12:12.676Z,68.12
2023-05-22T21:15:16.369Z,67.95
2023-05-22T21:18:20.399Z,68.35
2023-05-22T21:21:23.901Z,68.57
2023-05-22T21:24:27.445Z,68.94
2023-05-22T21:27:30.808Z,69.04
2023-05-22T21:30:34.752Z,69.21
2023-05-22T21:33:38.221Z,69.62
2023-05-22T21:36:42.033Z,70.34
2023-05-22T21:39:45.679Z,70.24
2023-05-22T21:42:49.556Z,70.40
2023-05-22T21:45:53.088Z,70.41
2023-05-22T21:48:56.801Z,70.67
2023-05-22T21:52:00.278Z,70.72
2023-05-22T21:55:03.529Z,71.07
2023-05-22T21:58:07.261Z,71.13
2023-05-22T22:01:11.382Z,71.34
2023-05-22T22:04:14.813Z,71.30
2023-05-22T22:07:18.345Z,71.72
2023-05-22T22:10:22.026Z,72.20
2023-05-22T22:13:25.818Z,73.02
2023-05-22T22:16:28.537Z,73.28
2023-05-22T22:19:30.569Z,72.83
2023-05-22T22:22:32.743Z,73.24
2023-05-22T22:25:34.680Z,73.16
2023-05-22T22:28:36.696Z,72.96
2023-05-22T22:31:38.681Z,73.05
2023-05-22T22:34:40.596Z,73.07
2023-05-22T22:37:42.881Z,73.13
2023-05-22T22:40:44.744Z,73.32
2023-05-22T22:43:46.560Z,72.94
2023-05-22T22:46:48.296Z,73.58
2023-05-22T22:49:50.090Z,73.38
2023-05-22T22:52:52.986Z,73.48
2023-05-22T22:55:59.366Z,74.13
2023-05-22T22:59:01.552Z,74.72
2023-05-22T23:02:03.451Z,74.95
2023-05-22T23:05:06.780Z,75.05
2023-05-22T23:08:08.663Z,74.42
2023-05-22T23:11:10.771Z,74.77
2023-05-22T23:14:13.568Z,74.78
2023-05-22T23:17:15.552Z,74.50
2023-05-22T23:20:17.666Z,74.86
2023-05-22T23:23:19.780Z,74.59
2023-05-22T23:26:21.954Z,74.79
2023-05-22T23:29:24.415Z,75.43
2023-05-22T23:32:26.881Z,75.58
2023-05-22T23:35:29.198Z,75.61
2023-05-22T23:38:31.345Z,75.96
2023-05-22T23:41:33.745Z,76.22
2023-05-22T23:44:37.045Z,75.88
2023-05-22T23:47:39.536Z,75.58
2023-05-22T23:50:42.347Z,75.47
2023-05-22T23:53:44.295Z,76.79
2023-05-22T23:56:46.598Z,75.46
2023-05-22T23:59:48.907Z,75.16
